Chateauneuf (21) - D

Date : 25/05/2017

Place Nom Licence Catégorie Club Temps CN à J-60 Points Différence Nouveau CN
1 PALCAU Marie-Violaine 2723 D50 7404AR 0:18:57 5744 6221 +477 5840
2 GUINOT Véronique 15015 D55 2108BF 0:23:16 5246 5067 -179 5323
3 KORCHAK Lena 13637 D55 6806GE 0:24:36 4772 4792 +20 4728
4 MAES Karine 5989 D50 5604BR 0:24:50 4591 4747 +156 4607
5 MARTIN Pascale 23568 D55 7512IF 0:25:19 4176 4656 +480 4155
6 WACK Isabelle 29551 D50 6804GE 0:25:32 4265 4617 +352 4266
7 DELATOUR Christiane 3057 D55 7404AR 0:26:58 4541 4371 -170 4368
8 PREVOST Pascale 922 D60 7707IF 0:27:02 4915 4361 -554 5053
9 OLIGO Virginie 9192 D55 5609BR 0:27:29 5122 4289 -833 5078
10 CALANDRY Lucia 9352 D50 7404AR 0:28:04 4136 4200 +64 4220
11 CAILLET Véronique 11388 D55 2109BF 0:29:12 3119 4037 +918 3537
12 PIERSON Blandine 19003 D50 7808IF 0:29:56 4040 3938 -102 4033
13 PERE Catherine 2730 D55 2105BF 0:29:59 4085 3932 -153 4044
14 CAMPBELL Jane 17406 D60 7807IF 0:30:50 4047 3823 -224 4088
15 DUCHENE Edith 2481 D55 8807GE 0:31:32 3375 3738 +363 3591
16 BOCQUET Pascale 12715 D55 4010NA 0:31:55 3463 3693 +230 3499
17 ARMBRUSTER Marie 2952 D55 2508BF 0:32:17 3674 3652 -22 3753
18 ELVER Judith 20660 D50 9105IF 0:32:51 3533 3589 +56 3407
19 HERVE-JOUSSE Odile 13784 D60 7808IF 0:32:56 3741 3579 -162 3677
20 CORDEIRO MENDES Myriam 9235 D55 6008HF 0:33:13 3903 3549 -354 3916
21 BOUCHE Sylvie 7520 D55 9105IF 0:34:00 3432 3467 +35 3473
22 RORA Isabelle 7703 D50 7719IF 0:34:24 3602 3427 -175 3541
23 BOUCHE Nathalie 31830 D50 5116GE 0:34:25 3600 3425 -175 3705
24 TERRILLON Marie-Therese 15717 D55 4012NA 0:35:45 4123 3297 -826 4131
25 VILLEDIEU Martine 13752 D60 4201AR 0:35:48 3776 3293 -483 3562
26 TAUZIN-LAMY Christine 89 D55 7004BF 0:36:08 3145 3262 +117 3145
27 RAVENEL Veronique 10902 D50 6804GE 0:36:15 3382 3252 -130 3390
28 PEKER Valérie 25927 D50 7707IF 0:36:24 3035 3239 +204 3137
29 PONCET Catherine 16755 D55 3913BF 0:36:31 2744 3228 +484 2591
30 EUDIER Celine 15698 D55 7720IF 0:36:59 2956 3187 +231 3351
31 RICHARD Nicole 14245 D65 0207HF 0:37:19 3715 3159 -556 3838
32 CHALOPIN Catherine 3674 D65 2105BF 0:37:34 3964 3138 -826 3708
33 BOUCHAN Christine 29603 D55 9006BF 0:38:01 3003 3101 +98 3057
34 TESSIER Ariane 2004 D60 7709IF 0:39:54 2758 2954 +196 2822
35 VILLAME Uli 22384 D50 7719IF 0:39:59 3466 2948 -518 3412
36 LAMINETTE M-Odile 17201 D55 5907HF 0:40:02 2480 2945 +465 2737
37 BERGER M-Jose 7182 D65 5703GE 0:40:58 2991 2878 -113 3225
38 DIEUDONNE Madeleine 1380 D70 7808IF 0:41:38 3470 2831 -639 3449
39 MOLLARET Arielle 14534 D55 7404AR 0:42:08 3103 2798 -305 3143
40 BOLZER Véronique 22013 D50 5407GE 0:42:19 2664 2786 +122 2826
41 MOISSERON Claire 19996 D50 1408NM 0:42:22 3963 2782 -1181 3983
42 GUILLOU Florence 28132 D50 2904BR 0:42:53 3183 2749 -434 3153
43 CHAMPION Françoise 26676 D50 7720IF 0:43:34 2220 2706 +486 2134
44 GUIGNARD Marie 11369 D55 3319NA 0:43:51 2936 2688 -248 2951
45 BOUCHART Dominique 30127 D50 7807IF 0:47:09 2756 2500 -256 1888
46 CHARDOT Ulrike 22314 D50 7807IF 0:47:14 2822 2496 -326 2842
47 CHAMPIGNY Laurence 25032 D50 1307PZ 0:47:33 3036 2479 -557 3041
48 LECOYER Annick 2885 D65 0207HF 0:47:59 2975 2457 -518 2977
49 DASILVA Irene 878 D50 7707IF 0:48:34 2427 1770
50 GREVET Claudie 15296 D55 6806GE 0:48:58 2799 2407 -392 2792
51 BERION Marie-Josephe 23056 D60 2508BF 0:49:34 2396 2378 -18 2391
52 GOLMARD Chantal 2668 D60 2101BF 0:49:35 3258 2377 -881 3223
53 ULMER Claudine 11497 D65 1303PZ 0:51:54 2671 2271 -400 2456
54 MOLINIER Frederique 3990 D55 7716IF 0:52:30 3098 2245 -853 2922
55 KIEFFER Mireille 2680 D70 2101BF 0:53:51 2292 2189 -103 2269
56 DENIS Martine 12377 D70 9404IF 0:55:24 2511 2128 -383 2451
57 POULAIN Odile 1948 D55 5909HF 0:58:03 2027 2031 +4 2072
58 LUDEWIG-JAMES Carol 15894 D75 5907HF 1:00:15 1900 1957 +57 1949
59 BARNIER Mireille 31459 D60 1303PZ 1:00:29 2168 1949 -219 2232
60 FEHLEN Jacqueline 20808 D70 5407GE 3:12:57 2101 611 -1490 1307
BASTIEN-FATH Nicole 8954 D70 5402GE pm 2366 0 2333
COFFE Marie-Pierre 20358 D50 9502IF pm 3466 0 3453
QUEYROI Yvette 14021 D55 3308NA pm 1561 0 1672
DERMINE Isabelle 1847 D55 3801AR pm 4730 0 4695
POGU Paulette 4671 D65 5402GE pm 2436 0 2471
BLASS Nadine 18625 D60 5407GE pm 2626 0 2368
REINEN Carine 33046 D50 4508CE pm 1664 0 1974